Time;durP1;ratioP1;P1;durP2;ratioP2;P2;SDS_P1;SDS_P2;PMS_P1;PMS_P2;Temp;Humidity;BMP_temperature;BMP_pressure;BME280_temperature;BME280_humidity;BME280_pressure;Samples;Min_cycle;Max_cycle;Signal;HPM_P1;HPM_P2
2023/02/05 00:00:23;;;;;;;6.60;1.90;;;-0.50;99.90;;;;;;4162263;28;20686;-76
2023/02/05 00:02:24;;;;;;;2.57;1.60;;;-0.50;99.90;;;;;;4157457;28;20471;-75
2023/02/05 00:04:28;;;;;;;3.57;1.57;;;-0.60;99.90;;;;;;4157793;28;20556;-77
2023/02/05 00:06:30;;;;;;;3.83;1.60;;;-0.60;99.90;;;;;;4154824;28;20464;-77
2023/02/05 00:08:32;;;;;;;2.83;1.50;;;-0.60;99.90;;;;;;4158195;28;20473;-76
2023/02/05 00:10:34;;;;;;;4.47;1.47;;;-0.70;99.90;;;;;;4167489;28;20496;-76
2023/02/05 00:12:37;;;;;;;3.03;1.73;;;-0.70;99.90;;;;;;4154528;28;20462;-77
2023/02/05 00:14:39;;;;;;;6.67;1.50;;;-0.80;99.90;;;;;;4155187;28;20458;-77
2023/02/05 00:16:43;;;;;;;6.37;1.63;;;-0.70;99.90;;;;;;4156055;28;20867;-77
2023/02/05 00:18:45;;;;;;;2.80;1.27;;;-0.80;99.90;;;;;;4167106;28;20474;-77
2023/02/05 00:20:48;;;;;;;3.70;1.43;;;-0.90;99.90;;;;;;4155202;28;21248;-77
2023/02/05 00:22:50;;;;;;;4.13;1.47;;;-0.90;99.90;;;;;;4157057;28;20545;-77
2023/02/05 00:24:52;;;;;;;2.83;1.40;;;-0.90;99.90;;;;;;4173118;28;20502;-76
2023/02/05 00:26:54;;;;;;;5.07;1.80;;;-1.00;99.90;;;;;;4157648;28;20535;-77
2023/02/05 00:28:56;;;;;;;4.50;1.73;;;-1.00;99.90;;;;;;4158971;28;20520;-77
2023/02/05 00:30:58;;;;;;;2.67;1.57;;;-1.00;99.90;;;;;;4155220;28;20553;-77
2023/02/05 00:32:59;;;;;;;2.97;1.83;;;-1.00;99.90;;;;;;4156248;28;20536;-77
2023/02/05 00:35:01;;;;;;;2.77;1.30;;;-1.10;99.90;;;;;;4154707;28;20474;-77
2023/02/05 00:37:05;;;;;;;2.83;1.67;;;-1.10;99.90;;;;;;4157495;28;20554;-76
2023/02/05 00:39:08;;;;;;;2.23;1.50;;;-1.20;99.90;;;;;;4158074;28;20463;-76
2023/02/05 00:41:09;;;;;;;3.97;1.57;;;-1.20;99.90;;;;;;4157822;28;20459;-77
2023/02/05 00:43:11;;;;;;;4.43;1.93;;;-1.20;99.90;;;;;;4161214;28;20553;-77
2023/02/05 00:45:13;;;;;;;2.33;1.40;;;-1.20;99.90;;;;;;4154798;28;20465;-77
2023/02/05 00:47:15;;;;;;;4.47;1.67;;;-1.30;99.90;;;;;;4155091;28;20470;-77
2023/02/05 00:49:23;;;;;;;4.37;1.57;;;-1.30;99.90;;;;;;4158160;28;21032;-77
2023/02/05 00:51:27;;;;;;;3.23;1.50;;;-1.30;99.90;;;;;;4158216;28;21359;-77
2023/02/05 00:53:30;;;;;;;3.40;1.80;;;-1.40;99.90;;;;;;4157162;28;20459;-77
2023/02/05 00:55:32;;;;;;;4.37;1.80;;;-1.40;99.90;;;;;;4156713;28;20954;-77
2023/02/05 00:57:37;;;;;;;4.20;1.50;;;-1.40;99.90;;;;;;4155381;28;20547;-77
2023/02/05 00:59:38;;;;;;;4.27;1.30;;;-1.40;99.90;;;;;;4162043;28;20466;-77
2023/02/05 01:01:40;;;;;;;2.67;1.30;;;-1.40;99.90;;;;;;4160428;28;21027;-77
2023/02/05 01:03:42;;;;;;;2.80;1.17;;;-1.40;99.90;;;;;;4163144;28;20485;-76
2023/02/05 01:05:45;;;;;;;2.40;1.77;;;-1.40;99.90;;;;;;4159334;28;20493;-76
2023/02/05 01:07:47;;;;;;;2.63;1.30;;;-1.40;99.90;;;;;;4159609;28;20470;-76
2023/02/05 01:09:50;;;;;;;2.23;1.67;;;-1.50;99.90;;;;;;4163658;28;20512;-77
2023/02/05 01:11:52;;;;;;;2.63;1.53;;;-1.50;99.90;;;;;;4157501;28;20456;-77
2023/02/05 01:13:55;;;;;;;3.40;1.30;;;-1.50;99.90;;;;;;4161062;28;20482;-77
2023/02/05 01:15:57;;;;;;;2.47;1.40;;;-1.50;99.90;;;;;;4156247;28;20466;-77
2023/02/05 01:17:59;;;;;;;4.43;1.40;;;-1.50;99.90;;;;;;4159326;28;20898;-76
2023/02/05 01:20:01;;;;;;;2.63;1.50;;;-1.50;99.90;;;;;;4153818;28;21030;-77
2023/02/05 01:22:04;;;;;;;4.57;1.77;;;-1.50;99.90;;;;;;4154835;28;20542;-77
2023/02/05 01:24:06;;;;;;;1.70;1.20;;;-1.50;99.90;;;;;;4158265;28;20491;-77
2023/02/05 01:26:09;;;;;;;2.33;1.30;;;-1.40;99.90;;;;;;4154129;28;20569;-76
2023/02/05 01:28:11;;;;;;;3.13;1.53;;;-1.40;99.90;;;;;;4157284;28;20496;-77
2023/02/05 01:30:13;;;;;;;2.40;1.27;;;-1.40;99.90;;;;;;4155097;28;21271;-77
2023/02/05 01:32:16;;;;;;;3.03;1.40;;;-1.40;99.90;;;;;;4152051;28;20454;-77
2023/02/05 01:34:18;;;;;;;2.73;1.30;;;-1.40;99.90;;;;;;4155791;28;21012;-77
2023/02/05 01:36:19;;;;;;;3.67;1.40;;;-1.40;99.90;;;;;;4153189;28;20529;-77
2023/02/05 01:38:21;;;;;;;3.87;1.50;;;-1.40;99.90;;;;;;4153473;28;20574;-77
2023/02/05 01:40:23;;;;;;;2.77;1.47;;;-1.40;99.90;;;;;;4152216;28;20904;-77
2023/02/05 01:42:29;;;;;;;5.13;1.50;;;-1.00;99.90;;;;;;4158116;28;20519;-78
2023/02/05 01:44:31;;;;;;;4.87;1.60;;;-1.40;99.90;;;;;;4156365;28;20846;-77
2023/02/05 01:46:35;;;;;;;4.10;1.77;;;-1.40;99.90;;;;;;4163137;28;20916;-77
2023/02/05 01:48:41;;;;;;;3.33;1.50;;;-1.50;99.90;;;;;;4160637;28;20540;-78
2023/02/05 01:50:46;;;;;;;4.90;1.63;;;-1.50;99.90;;;;;;4155170;28;20502;-78
2023/02/05 01:52:48;;;;;;;4.60;1.70;;;-1.50;99.90;;;;;;4163481;28;20467;-78
2023/02/05 01:54:52;;;;;;;3.97;1.87;;;-1.50;99.90;;;;;;4154984;28;20550;-77
2023/02/05 01:57:02;;;;;;;3.67;1.80;;;-1.60;99.90;;;;;;4162541;28;20512;-77
2023/02/05 01:59:08;;;;;;;2.97;1.47;;;-1.60;99.90;;;;;;4160530;28;20486;-78
2023/02/05 02:01:10;;;;;;;3.40;1.57;;;-1.60;99.90;;;;;;4159837;28;20795;-78
2023/02/05 02:03:14;;;;;;;3.13;1.63;;;-1.70;99.90;;;;;;4153504;28;20581;-78
2023/02/05 02:05:18;;;;;;;2.70;1.60;;;-1.60;99.90;;;;;;4160017;28;20588;-77
2023/02/05 02:07:21;;;;;;;5.77;1.80;;;-1.70;99.90;;;;;;4163781;28;20823;-78
2023/02/05 02:09:23;;;;;;;3.20;1.57;;;-1.70;99.90;;;;;;4159542;28;20565;-78
2023/02/05 02:11:28;;;;;;;3.20;1.50;;;-1.70;99.90;;;;;;4157990;28;20462;-78
2023/02/05 02:13:32;;;;;;;2.80;1.30;;;-1.70;99.90;;;;;;4157419;28;20541;-77
2023/02/05 02:15:36;;;;;;;3.40;1.53;;;-1.70;99.90;;;;;;4160178;28;20467;-77
2023/02/05 02:17:42;;;;;;;7.07;1.60;;;-1.80;99.90;;;;;;4156030;28;20973;-77
2023/02/05 02:19:51;;;;;;;2.17;1.20;;;-1.80;99.90;;;;;;4163104;28;20521;-77
2023/02/05 02:22:12;;;;;;;3.87;1.50;;;-1.80;99.90;;;;;;4155370;28;20545;-77
2023/02/05 02:24:45;;;;;;;2.50;1.20;;;-1.80;99.90;;;;;;4151533;28;20486;-77
2023/02/05 02:26:59;;;;;;;2.57;1.40;;;-1.80;99.90;;;;;;4157000;28;20459;-77
2023/02/05 02:29:04;;;;;;;3.43;1.30;;;-1.80;99.90;;;;;;4152951;28;20481;-78
2023/02/05 02:31:11;;;;;;;5.03;2.30;;;-1.90;99.90;;;;;;4150294;28;20467;-77
2023/02/05 02:33:19;;;;;;;2.43;1.00;;;-1.90;99.90;;;;;;4148850;28;20454;-77
2023/02/05 02:35:27;;;;;;;2.67;1.33;;;-1.90;99.90;;;;;;4156364;28;21269;-77
2023/02/05 02:37:35;;;;;;;2.30;1.47;;;-1.90;99.90;;;;;;4156024;28;20477;-77
2023/02/05 02:39:42;;;;;;;3.17;1.47;;;-1.90;99.90;;;;;;4160198;28;20481;-77
2023/02/05 02:41:50;;;;;;;2.47;1.33;;;-1.90;99.90;;;;;;4162240;28;20979;-77
2023/02/05 02:43:56;;;;;;;4.47;1.40;;;-1.90;99.90;;;;;;4159005;28;20450;-78
2023/02/05 02:46:04;;;;;;;3.53;1.23;;;-1.90;99.90;;;;;;4151007;28;20543;-78
2023/02/05 02:48:07;;;;;;;2.57;1.00;;;-1.90;99.90;;;;;;4153614;28;21409;-77
2023/02/05 02:50:14;;;;;;;1.97;1.20;;;-1.90;99.90;;;;;;4154649;28;20453;-77
2023/02/05 02:52:19;;;;;;;2.03;1.40;;;-1.90;99.90;;;;;;4153115;28;20496;-77
2023/02/05 02:54:22;;;;;;;4.50;1.00;;;-1.90;99.90;;;;;;4156919;28;21000;-77
2023/02/05 02:56:26;;;;;;;5.87;1.40;;;-1.90;99.90;;;;;;4162089;28;20461;-77
2023/02/05 02:58:33;;;;;;;2.30;1.20;;;-1.90;99.90;;;;;;4152092;28;20494;-77
2023/02/05 03:00:39;;;;;;;2.67;1.10;;;-1.90;99.90;;;;;;4153764;28;20499;-76
2023/02/05 03:02:45;;;;;;;2.07;1.40;;;-1.90;99.90;;;;;;4152662;28;20466;-77
2023/02/05 03:04:54;;;;;;;5.20;1.43;;;-1.90;99.90;;;;;;4157241;28;20918;-78
2023/02/05 03:07:05;;;;;;;1.40;1.03;;;-1.90;99.90;;;;;;4148744;28;20900;-77
2023/02/05 03:09:13;;;;;;;3.43;1.30;;;-1.90;99.90;;;;;;4156032;28;20984;-77
2023/02/05 03:11:16;;;;;;;2.63;1.60;;;-1.90;99.90;;;;;;4155629;28;20461;-77
2023/02/05 03:13:18;;;;;;;3.60;1.50;;;-2.00;99.90;;;;;;4151836;28;20537;-77
2023/02/05 03:15:20;;;;;;;3.63;1.47;;;-2.00;99.90;;;;;;4157583;28;20450;-77
2023/02/05 03:17:24;;;;;;;1.63;1.03;;;-2.00;99.90;;;;;;4154202;28;20466;-77
2023/02/05 03:19:28;;;;;;;1.77;1.17;;;-2.00;99.90;;;;;;4162561;28;20478;-77
2023/02/05 03:21:34;;;;;;;2.90;1.50;;;-2.00;99.90;;;;;;4151074;28;20482;-76
2023/02/05 03:23:36;;;;;;;3.90;1.40;;;-2.00;99.90;;;;;;4159580;28;20449;-77
2023/02/05 03:25:38;;;;;;;2.50;1.20;;;-2.00;99.90;;;;;;4156130;28;20908;-77
2023/02/05 03:27:40;;;;;;;4.30;1.73;;;-2.00;99.90;;;;;;4159314;28;20454;-77
2023/02/05 03:29:44;;;;;;;1.57;1.17;;;-2.00;99.90;;;;;;4157812;28;20511;-78
2023/02/05 03:31:55;;;;;;;2.37;1.47;;;-2.00;99.90;;;;;;4150911;28;20455;-78
2023/02/05 03:34:09;;;;;;;2.10;1.20;;;-2.10;99.90;;;;;;4152307;28;20511;-77
2023/02/05 03:36:25;;;;;;;4.70;1.50;;;-2.10;99.90;;;;;;4150962;28;20529;-77
2023/02/05 03:38:38;;;;;;;3.33;1.30;;;-2.10;99.90;;;;;;4158043;28;20485;-78
2023/02/05 03:40:47;;;;;;;2.60;1.43;;;-2.10;99.90;;;;;;4149231;28;20540;-77
2023/02/05 03:42:59;;;;;;;2.65;1.20;;;-2.10;99.90;;;;;;4153725;28;21381;-77
2023/02/05 03:45:20;;;;;;;4.43;2.07;;;-1.70;99.90;;;;;;4160646;28;20247;-77
2023/02/05 03:47:34;;;;;;;5.17;1.50;;;-2.10;99.90;;;;;;4148634;28;20442;-78
2023/02/05 03:49:51;;;;;;;6.03;1.60;;;-2.10;99.90;;;;;;4151268;28;20534;-77
2023/02/05 03:52:00;;;;;;;4.37;2.07;;;-2.10;99.90;;;;;;4156960;28;20212;-77
2023/02/05 03:54:09;;;;;;;2.83;1.70;;;-2.20;99.90;;;;;;4153867;28;20501;-76
2023/02/05 03:56:23;;;;;;;5.10;1.90;;;-2.20;99.90;;;;;;4153636;28;20473;-77
2023/02/05 03:58:29;;;;;;;6.20;2.00;;;-2.20;99.90;;;;;;4151387;28;20521;-76
2023/02/05 04:00:32;;;;;;;3.07;1.90;;;-2.20;99.90;;;;;;4153679;28;20489;-78
2023/02/05 04:02:34;;;;;;;5.72;2.00;;;-2.20;99.90;;;;;;4151161;28;20903;-77
2023/02/05 04:04:36;;;;;;;2.83;1.97;;;-2.10;99.90;;;;;;4158242;28;20310;-76
2023/02/05 04:06:38;;;;;;;2.65;1.40;;;-2.20;99.90;;;;;;4158392;28;20472;-76
2023/02/05 04:08:42;;;;;;;2.78;1.60;;;-2.10;99.90;;;;;;4152994;28;20728;-77
2023/02/05 04:10:44;;;;;;;2.53;1.67;;;-2.10;99.90;;;;;;4157571;28;20238;-77
2023/02/05 04:12:46;;;;;;;4.27;2.10;;;-1.90;99.90;;;;;;4152898;28;20221;-77
2023/02/05 04:14:48;;;;;;;5.00;1.90;;;-2.10;99.90;;;;;;4153305;28;20478;-76
2023/02/05 04:16:50;;;;;;;4.43;1.93;;;-1.90;99.90;;;;;;4156078;28;20829;-76
2023/02/05 04:18:52;;;;;;;3.97;1.77;;;-1.80;99.90;;;;;;4153473;28;20466;-76
2023/02/05 04:20:54;;;;;;;2.80;1.50;;;-1.80;99.90;;;;;;4153546;28;20875;-76
2023/02/05 04:22:56;;;;;;;2.73;1.70;;;-1.80;99.90;;;;;;4153244;28;20455;-77
2023/02/05 04:24:59;;;;;;;5.27;2.00;;;-1.80;99.90;;;;;;4156631;28;21106;-75
2023/02/05 04:27:01;;;;;;;4.73;2.00;;;-1.80;99.90;;;;;;4161563;28;20496;-76
2023/02/05 04:29:03;;;;;;;3.75;1.92;;;-1.80;99.90;;;;;;4147113;28;20497;-75
2023/02/05 04:31:07;;;;;;;5.07;1.87;;;-1.90;99.90;;;;;;4154519;28;20307;-75
2023/02/05 04:33:09;;;;;;;5.78;2.15;;;-2.00;99.90;;;;;;4161618;28;20561;-75
2023/02/05 04:35:11;;;;;;;3.43;1.70;;;-2.00;99.90;;;;;;4148202;28;20679;-77
2023/02/05 04:37:13;;;;;;;7.67;1.93;;;-2.00;99.90;;;;;;4155074;28;20505;-75
2023/02/05 04:39:15;;;;;;;4.00;1.57;;;-2.10;99.90;;;;;;4160052;28;20462;-76
2023/02/05 04:41:18;;;;;;;4.40;1.93;;;-2.10;99.90;;;;;;4146414;28;20460;-76
2023/02/05 04:43:20;;;;;;;3.77;1.77;;;-2.10;99.90;;;;;;4154145;28;20513;-75
2023/02/05 04:45:22;;;;;;;5.60;2.00;;;-2.20;99.90;;;;;;4155894;28;20933;-76
2023/02/05 04:47:24;;;;;;;3.53;1.92;;;-2.20;99.90;;;;;;4148380;28;20451;-76
2023/02/05 04:49:26;;;;;;;4.27;2.00;;;-2.20;99.90;;;;;;4158292;28;20341;-76
2023/02/05 04:51:28;;;;;;;5.47;2.50;;;-2.20;99.90;;;;;;4150534;28;20542;-75
2023/02/05 04:53:30;;;;;;;6.03;2.10;;;-2.30;99.90;;;;;;4155960;28;20457;-77
2023/02/05 04:55:32;;;;;;;4.03;2.00;;;-2.30;99.90;;;;;;4155802;28;20490;-76
2023/02/05 04:57:36;;;;;;;3.90;2.10;;;-2.30;99.90;;;;;;4158340;28;20472;-75
2023/02/05 04:59:38;;;;;;;5.33;2.40;;;-2.30;99.90;;;;;;4155560;28;20499;-77
2023/02/05 05:01:40;;;;;;;4.97;2.00;;;-2.30;99.90;;;;;;4152317;28;20557;-76
2023/02/05 05:03:43;;;;;;;4.27;1.90;;;-2.40;99.90;;;;;;4160608;28;20902;-77
2023/02/05 05:05:45;;;;;;;3.70;1.93;;;-2.40;99.90;;;;;;4153808;28;20593;-75
2023/02/05 05:07:47;;;;;;;5.97;2.40;;;-2.40;99.90;;;;;;4161944;28;20839;-78
2023/02/05 05:09:49;;;;;;;3.70;1.77;;;-2.40;99.90;;;;;;4161933;28;20313;-75
2023/02/05 05:11:52;;;;;;;5.63;2.42;;;-2.40;99.90;;;;;;4157175;28;20485;-75
2023/02/05 05:13:55;;;;;;;5.00;2.20;;;-2.40;99.90;;;;;;4155134;28;20863;-76
2023/02/05 05:15:57;;;;;;;5.33;2.10;;;-2.40;99.90;;;;;;4154077;28;20545;-75
2023/02/05 05:17:59;;;;;;;5.40;2.27;;;-2.40;99.90;;;;;;4159306;28;20463;-76
2023/02/05 05:20:00;;;;;;;3.53;1.97;;;-2.50;99.90;;;;;;4160575;28;20453;-76
2023/02/05 05:22:02;;;;;;;5.03;2.28;;;-2.50;99.90;;;;;;4153125;28;20541;-76
2023/02/05 05:24:04;;;;;;;6.05;2.28;;;-2.50;99.90;;;;;;4155518;28;20218;-77
2023/02/05 05:26:08;;;;;;;4.33;2.17;;;-2.50;99.90;;;;;;4157559;28;20254;-76
2023/02/05 05:28:10;;;;;;;2.57;1.60;;;-2.50;99.90;;;;;;4157693;28;20879;-75
2023/02/05 05:30:15;;;;;;;4.57;2.20;;;-2.50;99.90;;;;;;4151863;28;21111;-76
2023/02/05 05:32:17;;;;;;;5.80;1.93;;;-2.50;99.90;;;;;;4157532;28;20226;-76
2023/02/05 05:34:18;;;;;;;8.07;2.33;;;-2.50;99.90;;;;;;4160725;28;20490;-76
2023/02/05 05:36:20;;;;;;;4.55;2.03;;;-2.50;99.90;;;;;;4158770;28;20536;-76
2023/02/05 05:38:22;;;;;;;3.63;1.83;;;-2.50;99.90;;;;;;4160309;28;20234;-76
2023/02/05 05:45:06;;;;;;;4.97;2.30;;;-2.60;99.90;;;;;;4163259;28;20223;-75
2023/02/05 05:47:09;;;;;;;4.83;2.00;;;-2.60;99.90;;;;;;4165409;28;20298;-76
2023/02/05 05:49:11;;;;;;;5.70;1.97;;;-2.60;99.90;;;;;;4157056;28;20494;-76
2023/02/05 05:51:13;;;;;;;6.87;2.50;;;-2.60;99.90;;;;;;4150508;28;20485;-77
2023/02/05 05:53:15;;;;;;;5.63;2.07;;;-2.60;99.90;;;;;;4160258;28;20496;-77
2023/02/05 05:55:17;;;;;;;8.03;2.30;;;-2.60;99.90;;;;;;4167299;28;20465;-77
2023/02/05 05:57:19;;;;;;;6.55;2.30;;;-2.60;99.90;;;;;;4152936;28;20493;-77
2023/02/05 05:59:21;;;;;;;4.43;1.87;;;-2.50;99.90;;;;;;4167882;28;20234;-77
2023/02/05 06:01:23;;;;;;;5.30;2.07;;;-2.70;99.90;;;;;;4174003;28;20549;-76
2023/02/05 06:03:27;;;;;;;3.03;2.10;;;-2.60;99.90;;;;;;4154516;28;20485;-76
2023/02/05 06:05:28;;;;;;;3.93;2.27;;;-2.70;99.90;;;;;;4152991;28;20753;-76
2023/02/05 06:07:30;;;;;;;3.90;2.33;;;-2.70;99.90;;;;;;4159527;28;20478;-76
2023/02/05 06:09:32;;;;;;;4.40;2.10;;;-2.70;99.90;;;;;;4157889;28;20649;-76
2023/02/05 06:11:34;;;;;;;2.85;1.88;;;-2.30;99.90;;;;;;4150103;28;20964;-76
2023/02/05 06:13:36;;;;;;;3.65;2.22;;;-2.70;99.90;;;;;;4155993;28;20604;-76
2023/02/05 06:15:39;;;;;;;7.93;2.37;;;-2.70;99.90;;;;;;4153114;28;20654;-76
2023/02/05 06:17:41;;;;;;;4.30;2.20;;;-2.70;99.90;;;;;;4158070;28;20473;-76
2023/02/05 06:19:44;;;;;;;4.22;1.90;;;-2.70;99.90;;;;;;4165799;28;21192;-76
2023/02/05 06:21:46;;;;;;;5.53;2.67;;;-2.70;99.90;;;;;;4153553;28;20235;-75
2023/02/05 06:23:48;;;;;;;3.83;2.30;;;-2.50;99.90;;;;;;4155156;28;20454;-76
2023/02/05 06:25:50;;;;;;;4.78;2.60;;;-2.60;99.90;;;;;;4156125;28;20238;-76
2023/02/05 06:27:51;;;;;;;4.88;2.58;;;-2.30;99.90;;;;;;4153096;28;20255;-76
2023/02/05 06:29:53;;;;;;;5.75;2.35;;;-2.10;99.90;;;;;;4152477;28;20224;-76
2023/02/05 06:31:55;;;;;;;4.33;2.40;;;-2.70;99.90;;;;;;4158651;28;20614;-76
2023/02/05 06:33:57;;;;;;;7.97;2.22;;;-2.70;99.90;;;;;;4159310;28;20506;-75
2023/02/05 06:36:00;;;;;;;4.82;2.17;;;-2.70;99.90;;;;;;4156580;28;20232;-76
2023/02/05 06:38:02;;;;;;;4.95;2.35;;;-2.70;99.90;;;;;;4153005;28;20294;-77
2023/02/05 06:40:05;;;;;;;7.97;2.23;;;-2.70;99.90;;;;;;4156203;28;20214;-76
2023/02/05 06:42:07;;;;;;;4.90;2.20;;;-2.70;99.90;;;;;;4158234;28;20964;-77
2023/02/05 06:44:08;;;;;;;5.15;2.53;;;-2.70;99.90;;;;;;4158092;28;20206;-76
2023/02/05 06:46:10;;;;;;;4.80;2.28;;;-2.70;99.90;;;;;;4157727;28;20224;-76
2023/02/05 06:48:12;;;;;;;6.93;2.40;;;-2.80;99.90;;;;;;4159192;28;20196;-76
2023/02/05 06:50:14;;;;;;;9.60;2.83;;;-2.80;99.90;;;;;;4154739;28;20455;-77
2023/02/05 06:52:17;;;;;;;3.47;2.00;;;-2.80;99.90;;;;;;4156143;28;20457;-76
2023/02/05 06:54:19;;;;;;;7.37;2.23;;;-2.80;99.90;;;;;;4152828;28;20497;-76
2023/02/05 06:56:21;;;;;;;4.90;2.28;;;-2.80;99.90;;;;;;4148603;28;20497;-76
2023/02/05 06:58:23;;;;;;;6.70;2.88;;;-2.80;99.90;;;;;;4172252;28;20265;-76
2023/02/05 07:00:25;;;;;;;4.57;2.17;;;-2.80;99.90;;;;;;4156990;28;20199;-76
2023/02/05 07:02:28;;;;;;;7.13;2.50;;;-2.80;99.90;;;;;;4157618;28;20219;-77
2023/02/05 07:04:30;;;;;;;4.63;2.30;;;-2.80;99.90;;;;;;4154796;28;20287;-77
2023/02/05 07:06:32;;;;;;;4.40;2.13;;;-2.80;99.90;;;;;;4148916;28;20645;-76
2023/02/05 07:08:36;;;;;;;4.03;2.22;;;-2.50;99.90;;;;;;4157383;28;20247;-77
2023/02/05 07:10:38;;;;;;;5.68;2.50;;;-2.80;99.90;;;;;;4157902;28;20207;-76
2023/02/05 07:12:40;;;;;;;6.30;2.50;;;-2.80;99.90;;;;;;4153798;28;20294;-77
2023/02/05 07:14:42;;;;;;;4.47;2.67;;;-2.80;99.90;;;;;;4155857;28;20295;-76
2023/02/05 07:16:44;;;;;;;7.07;2.97;;;-2.80;99.90;;;;;;4152885;28;20208;-76
2023/02/05 07:18:46;;;;;;;3.97;2.10;;;-2.80;99.90;;;;;;4153550;28;20559;-76
2023/02/05 07:20:48;;;;;;;4.95;2.30;;;-2.80;99.90;;;;;;4155686;28;20314;-76
2023/02/05 07:22:50;;;;;;;5.85;2.65;;;-2.80;99.90;;;;;;4155269;28;20921;-76
2023/02/05 07:24:53;;;;;;;6.65;2.22;;;-2.80;99.90;;;;;;4151158;28;20888;-76
2023/02/05 07:26:55;;;;;;;5.90;2.30;;;-2.80;99.90;;;;;;4147188;28;20255;-76
2023/02/05 07:28:57;;;;;;;6.07;2.40;;;-2.80;99.90;;;;;;4155926;28;20229;-76
2023/02/05 07:31:04;;;;;;;6.90;2.87;;;-2.80;99.90;;;;;;4154771;28;20285;-76
2023/02/05 07:33:05;;;;;;;5.53;3.13;;;-2.80;99.90;;;;;;4153713;28;20445;-76
2023/02/05 07:35:08;;;;;;;6.57;3.08;;;-2.80;99.90;;;;;;4151671;28;20299;-75
2023/02/05 07:37:11;;;;;;;7.85;3.00;;;-2.80;99.90;;;;;;4155097;28;20211;-76
2023/02/05 07:39:13;;;;;;;4.82;2.88;;;-2.80;99.90;;;;;;4151766;28;20225;-76
2023/02/05 07:41:17;;;;;;;6.57;2.55;;;-2.70;99.90;;;;;;4163924;28;20613;-76
2023/02/05 07:43:19;;;;;;;6.45;2.92;;;-2.70;99.90;;;;;;4153564;28;20212;-76
2023/02/05 07:45:21;;;;;;;6.30;2.87;;;-2.60;99.90;;;;;;4170743;28;20210;-76
2023/02/05 07:47:23;;;;;;;6.32;2.58;;;-2.60;99.90;;;;;;4151684;28;20573;-76
2023/02/05 07:49:25;;;;;;;7.78;2.40;;;-2.60;99.90;;;;;;4153980;28;20227;-76
2023/02/05 07:51:27;;;;;;;7.70;3.45;;;-2.50;99.90;;;;;;4154369;28;20829;-76
2023/02/05 07:53:29;;;;;;;8.03;3.70;;;-2.50;99.90;;;;;;4169537;28;20202;-76
2023/02/05 07:55:31;;;;;;;9.70;3.63;;;-2.40;99.90;;;;;;4151906;28;20466;-76
2023/02/05 07:57:35;;;;;;;7.67;3.60;;;-2.40;99.90;;;;;;4154010;28;20697;-76
2023/02/05 07:59:37;;;;;;;6.27;3.00;;;-2.30;99.90;;;;;;4154933;28;20893;-76
2023/02/05 08:01:38;;;;;;;7.13;3.13;;;-2.30;99.90;;;;;;4155905;28;20502;-76
2023/02/05 08:03:40;;;;;;;5.93;2.77;;;-2.20;99.90;;;;;;4155789;28;20465;-75
2023/02/05 08:05:42;;;;;;;6.13;2.50;;;-2.10;99.90;;;;;;4151932;28;20463;-76
2023/02/05 08:07:44;;;;;;;6.20;2.77;;;-2.10;99.90;;;;;;4154858;28;20910;-76
2023/02/05 08:09:46;;;;;;;6.43;2.40;;;-2.00;99.90;;;;;;4155474;28;20496;-76
2023/02/05 08:11:48;;;;;;;4.33;2.27;;;-2.00;99.90;;;;;;4152329;28;20462;-76
2023/02/05 08:13:51;;;;;;;3.80;2.40;;;-1.90;99.90;;;;;;4153807;28;20489;-76
2023/02/05 08:15:53;;;;;;;5.50;2.33;;;-1.80;99.90;;;;;;4147035;28;20875;-76
2023/02/05 08:17:55;;;;;;;4.27;2.10;;;-1.70;99.90;;;;;;4156982;28;20845;-76
2023/02/05 08:19:58;;;;;;;3.60;2.43;;;-1.60;99.90;;;;;;4154204;28;20857;-76
2023/02/05 08:22:00;;;;;;;6.20;2.30;;;-1.60;99.90;;;;;;4153891;28;20479;-76
2023/02/05 08:24:02;;;;;;;4.07;2.33;;;-1.40;99.90;;;;;;4156178;28;20450;-75
2023/02/05 08:26:04;;;;;;;4.27;2.03;;;-1.40;99.90;;;;;;4157154;28;20538;-75
2023/02/05 08:28:06;;;;;;;5.20;2.57;;;-1.40;99.90;;;;;;4151566;28;20504;-76
2023/02/05 08:30:12;;;;;;;5.90;3.10;;;-1.30;99.90;;;;;;4149707;28;20460;-76
2023/02/05 08:32:14;;;;;;;5.90;2.73;;;-1.20;99.90;;;;;;4159674;28;20450;-76
2023/02/05 08:34:16;;;;;;;5.50;2.90;;;-1.20;99.90;;;;;;4153119;28;20555;-75
2023/02/05 08:36:18;;;;;;;6.13;3.43;;;-1.10;99.90;;;;;;4152852;28;20558;-76
2023/02/05 08:38:20;;;;;;;7.80;3.60;;;-1.10;99.90;;;;;;4157656;28;20483;-75
2023/02/05 08:40:25;;;;;;;6.07;3.40;;;-0.80;99.90;;;;;;4168958;28;20452;-76
2023/02/05 08:42:27;;;;;;;8.13;3.43;;;-1.00;99.90;;;;;;4152660;28;21005;-76
2023/02/05 08:44:29;;;;;;;7.40;3.90;;;-1.00;99.90;;;;;;4151797;28;20468;-75
2023/02/05 08:46:33;;;;;;;10.67;4.10;;;-0.90;99.90;;;;;;4155233;28;20828;-76
2023/02/05 08:48:34;;;;;;;9.20;3.90;;;-0.90;99.90;;;;;;4154319;28;21080;-76
2023/02/05 08:50:36;;;;;;;10.17;4.57;;;-0.80;99.90;;;;;;4155565;28;20497;-76
2023/02/05 08:52:38;;;;;;;9.43;4.30;;;-0.80;99.90;;;;;;4154861;28;20945;-76
2023/02/05 08:54:41;;;;;;;8.83;4.53;;;-0.70;99.90;;;;;;4157578;28;20496;-76
2023/02/05 08:56:45;;;;;;;8.67;3.90;;;-0.50;99.90;;;;;;4156152;28;21003;-76
2023/02/05 08:58:47;;;;;;;10.50;4.27;;;-0.70;99.90;;;;;;4154579;28;20478;-76
2023/02/05 09:00:49;;;;;;;7.67;4.40;;;-0.60;99.90;;;;;;4153431;28;20464;-76
2023/02/05 09:02:52;;;;;;;8.53;4.13;;;-0.50;99.90;;;;;;4156145;28;20467;-76
2023/02/05 09:04:54;;;;;;;9.23;4.57;;;-0.50;99.90;;;;;;4154116;28;20779;-76
2023/02/05 09:06:56;;;;;;;6.47;4.00;;;-0.40;99.90;;;;;;4155213;28;20566;-76
2023/02/05 09:08:58;;;;;;;10.20;5.57;;;-0.40;99.90;;;;;;4153958;28;20970;-77
2023/02/05 09:11:01;;;;;;;6.73;4.00;;;-0.40;99.90;;;;;;4156620;28;20957;-77
2023/02/05 09:13:03;;;;;;;9.97;4.50;;;-0.30;99.90;;;;;;4152254;28;20508;-76
2023/02/05 09:15:06;;;;;;;7.80;4.10;;;-0.30;99.90;;;;;;4154424;28;21039;-77
2023/02/05 09:17:10;;;;;;;8.60;4.50;;;-0.20;99.90;;;;;;4150480;28;20442;-77
2023/02/05 09:19:13;;;;;;;9.73;4.10;;;-0.20;99.90;;;;;;4153956;28;21048;-76
2023/02/05 09:21:15;;;;;;;9.73;4.60;;;-0.20;99.90;;;;;;4152035;28;21057;-76
2023/02/05 09:23:19;;;;;;;7.80;4.63;;;-0.10;99.90;;;;;;4152932;28;21011;-76
2023/02/05 09:25:21;;;;;;;9.03;4.63;;;0.00;99.90;;;;;;4154012;28;20736;-76
2023/02/05 09:27:23;;;;;;;12.67;5.17;;;-0.10;99.90;;;;;;4169614;28;20548;-77
2023/02/05 09:29:25;;;;;;;10.70;5.47;;;0.00;99.90;;;;;;4156021;28;20475;-77
2023/02/05 09:31:27;;;;;;;8.90;5.30;;;0.00;99.90;;;;;;4156657;28;20551;-76
2023/02/05 09:33:29;;;;;;;9.23;4.63;;;0.10;99.90;;;;;;4153640;28;20487;-76
2023/02/05 09:35:33;;;;;;;10.20;4.93;;;0.10;99.90;;;;;;4156499;28;20458;-77
2023/02/05 09:37:35;;;;;;;7.13;4.30;;;0.10;99.90;;;;;;4156066;28;20508;-77
2023/02/05 09:39:39;;;;;;;10.60;5.00;;;0.20;99.90;;;;;;4148372;28;20476;-76
2023/02/05 09:41:48;;;;;;;13.40;5.60;;;0.20;99.90;;;;;;4153212;28;20840;-76
2023/02/05 09:43:54;;;;;;;9.07;4.60;;;0.20;99.90;;;;;;4154239;28;20451;-77
2023/02/05 09:46:01;;;;;;;11.07;5.17;;;0.20;99.90;;;;;;4153796;28;21102;-77
2023/02/05 09:48:22;;;;;;;9.33;4.83;;;0.30;99.90;;;;;;4168798;28;20480;-77
2023/02/05 09:50:28;;;;;;;8.93;4.87;;;0.30;99.90;;;;;;4154029;28;20527;-76
2023/02/05 09:52:36;;;;;;;9.00;4.93;;;0.30;99.90;;;;;;4159351;28;21159;-76
2023/02/05 09:54:43;;;;;;;10.73;5.50;;;0.40;99.90;;;;;;4151987;28;20547;-77
2023/02/05 09:56:46;;;;;;;11.87;5.37;;;0.40;99.90;;;;;;4153693;28;20488;-77
2023/02/05 09:58:51;;;;;;;10.00;5.10;;;0.40;99.90;;;;;;4155721;28;20520;-76
2023/02/05 10:00:58;;;;;;;10.57;4.87;;;0.50;99.90;;;;;;4154795;28;20533;-77
2023/02/05 10:03:09;;;;;;;8.10;4.47;;;0.60;99.90;;;;;;4155260;28;20465;-77
2023/02/05 10:05:14;;;;;;;7.40;4.40;;;0.90;99.90;;;;;;4153970;28;20456;-77
2023/02/05 10:07:26;;;;;;;6.93;4.20;;;0.60;99.90;;;;;;4156830;28;20571;-77
2023/02/05 10:10:06;;;;;;;7.00;3.97;;;0.70;99.90;;;;;;4161102;28;20515;-77
2023/02/05 10:12:22;;;;;;;6.93;4.17;;;0.80;99.90;;;;;;4149678;28;20464;-77
2023/02/05 10:14:35;;;;;;;9.03;4.43;;;0.90;99.90;;;;;;4153160;28;20454;-78
2023/02/05 10:17:11;;;;;;;8.33;4.40;;;0.90;99.90;;;;;;4171237;28;20453;-79
2023/02/05 10:19:33;;;;;;;7.53;4.03;;;1.00;99.90;;;;;;4151649;28;20547;-78
2023/02/05 10:21:53;;;;;;;8.47;4.30;;;1.00;99.90;;;;;;4152481;28;20864;-77
2023/02/05 10:24:12;;;;;;;7.47;5.00;;;1.10;99.90;;;;;;4151896;28;20446;-77
2023/02/05 10:26:16;;;;;;;8.83;4.60;;;1.20;99.90;;;;;;4160268;28;20446;-78
2023/02/05 10:28:34;;;;;;;11.93;6.33;;;1.20;99.90;;;;;;4157682;28;20535;-81
2023/02/05 10:30:43;;;;;;;11.73;6.50;;;1.20;99.90;;;;;;4157196;28;20484;-78
2023/02/05 10:32:54;;;;;;;10.53;5.50;;;1.30;99.90;;;;;;4155622;28;20454;-77
2023/02/05 10:34:58;;;;;;;7.80;4.43;;;1.40;99.90;;;;;;4155313;28;20540;-77
2023/02/05 10:37:04;;;;;;;9.20;4.87;;;1.50;99.90;;;;;;4152756;28;20446;-77
2023/02/05 10:39:13;;;;;;;8.23;4.73;;;1.40;99.90;;;;;;4155783;28;20501;-79
2023/02/05 10:41:22;;;;;;;10.17;4.93;;;1.50;99.90;;;;;;4158574;28;20460;-75
2023/02/05 10:43:30;;;;;;;8.27;4.80;;;1.50;99.90;;;;;;4173596;28;20482;-78
2023/02/05 10:45:33;;;;;;;9.33;4.70;;;1.60;99.90;;;;;;4157908;28;20461;-79
2023/02/05 10:47:49;;;;;;;7.87;4.57;;;1.60;99.90;;;;;;4163138;28;20581;-78
2023/02/05 10:49:56;;;;;;;9.23;4.67;;;1.70;99.90;;;;;;4161034;28;20851;-81
2023/02/05 10:51:58;;;;;;;6.97;4.63;;;1.70;99.90;;;;;;4160980;28;20501;-81